createdAt,value
2019-01-14T00:00:14.442Z,0.93
2019-01-14T00:02:44.674Z,0.90
2019-01-14T00:05:12.166Z,1.20
2019-01-14T00:07:40.013Z,1.20
2019-01-14T00:10:07.797Z,1.17
2019-01-14T00:12:46.886Z,1.00
2019-01-14T00:15:15.119Z,1.07
2019-01-14T00:17:43.795Z,1.10
2019-01-14T00:20:38.585Z,1.07
2019-01-14T00:23:08.713Z,1.37
2019-01-14T00:25:42.261Z,0.90
2019-01-14T00:28:16.805Z,1.00
2019-01-14T00:30:45.022Z,0.77
2019-01-14T00:33:15.957Z,1.17
2019-01-14T00:35:48.420Z,1.10
2019-01-14T00:38:17.247Z,0.80
2019-01-14T00:40:45.407Z,1.27
2019-01-14T00:43:13.207Z,0.80
2019-01-14T00:45:48.605Z,0.77
2019-01-14T00:48:16.178Z,1.07
2019-01-14T00:50:45.621Z,1.20
2019-01-14T00:53:13.432Z,1.27
2019-01-14T00:55:45.571Z,1.40
2019-01-14T00:58:14.674Z,1.07
2019-01-14T01:00:42.625Z,1.53
2019-01-14T01:03:18.087Z,1.30
2019-01-14T01:05:41.882Z,1.40
2019-01-14T01:08:09.489Z,1.87
2019-01-14T01:10:42.226Z,1.50
2019-01-14T01:13:16.929Z,1.80
2019-01-14T01:15:59.128Z,1.40
2019-01-14T01:18:32.832Z,2.27
2019-01-14T01:21:00.327Z,1.40
2019-01-14T01:23:27.994Z,1.30
2019-01-14T01:25:55.586Z,1.50
2019-01-14T01:28:23.313Z,1.20
2019-01-14T01:30:50.950Z,1.53
2019-01-14T01:33:18.536Z,1.30
2019-01-14T01:35:46.484Z,1.40
2019-01-14T01:38:14.047Z,1.20
2019-01-14T01:40:41.597Z,1.50
2019-01-14T01:43:09.176Z,1.20
2019-01-14T01:45:36.779Z,1.30
2019-01-14T01:48:04.514Z,1.40
2019-01-14T01:50:32.055Z,1.63
2019-01-14T01:53:00.281Z,1.17
2019-01-14T01:55:27.887Z,1.60
2019-01-14T01:57:55.469Z,1.30
2019-01-14T02:00:23.312Z,1.53
2019-01-14T02:02:50.860Z,1.60
2019-01-14T02:05:19.297Z,1.40
2019-01-14T02:07:47.000Z,1.60
2019-01-14T02:10:17.018Z,1.30
2019-01-14T02:12:44.689Z,1.80
2019-01-14T02:15:13.440Z,1.20
2019-01-14T02:17:41.816Z,2.63
2019-01-14T02:20:10.381Z,1.33
2019-01-14T02:22:38.337Z,1.63
2019-01-14T02:25:06.565Z,1.60
2019-01-14T02:27:34.255Z,1.53
2019-01-14T02:30:01.850Z,2.50
2019-01-14T02:32:29.382Z,1.67
2019-01-14T02:34:56.988Z,2.20
2019-01-14T02:37:26.336Z,1.80
2019-01-14T02:39:54.056Z,2.03
2019-01-14T02:42:21.616Z,2.03
2019-01-14T02:44:49.176Z,1.00
2019-01-14T02:47:17.153Z,1.70
2019-01-14T02:49:44.778Z,1.73
2019-01-14T02:52:12.410Z,1.40
2019-01-14T02:54:40.057Z,1.50
2019-01-14T02:57:07.588Z,1.40
2019-01-14T02:59:35.097Z,1.40
2019-01-14T03:02:03.696Z,1.40
2019-01-14T03:04:31.375Z,2.03
2019-01-14T03:06:58.865Z,1.40
2019-01-14T03:09:26.789Z,1.40
2019-01-14T03:11:54.389Z,1.20
2019-01-14T03:14:21.969Z,1.47
2019-01-14T03:16:49.885Z,1.40
2019-01-14T03:19:17.574Z,1.30
2019-01-14T03:21:45.226Z,1.47
2019-01-14T03:24:14.274Z,1.43
2019-01-14T03:26:45.000Z,1.43
2019-01-14T03:29:12.517Z,1.10
2019-01-14T03:31:40.191Z,1.60
2019-01-14T03:34:07.684Z,1.37
2019-01-14T03:36:35.192Z,1.33
2019-01-14T03:39:05.254Z,1.40
2019-01-14T03:41:32.836Z,1.50
2019-01-14T03:44:00.297Z,1.70
2019-01-14T03:46:27.865Z,1.13
2019-01-14T03:48:55.413Z,1.40
2019-01-14T03:51:23.655Z,1.77
2019-01-14T03:53:51.185Z,1.90
2019-01-14T03:56:18.782Z,1.43
2019-01-14T03:58:46.437Z,1.60
2019-01-14T04:01:14.437Z,1.13
2019-01-14T04:03:42.100Z,1.33
2019-01-14T04:06:09.797Z,1.37
2019-01-14T04:08:37.581Z,1.27
2019-01-14T04:11:05.172Z,1.40
2019-01-14T04:13:32.729Z,1.83
2019-01-14T04:16:00.660Z,1.50
2019-01-14T04:18:28.171Z,1.53
2019-01-14T04:20:55.665Z,1.40
2019-01-14T04:23:23.193Z,1.57
2019-01-14T04:25:50.753Z,1.80
2019-01-14T04:28:18.365Z,1.80
2019-01-14T04:30:46.065Z,1.40
2019-01-14T04:33:14.188Z,1.53
2019-01-14T04:35:41.668Z,1.77
2019-01-14T04:38:09.157Z,1.47
2019-01-14T04:40:36.692Z,1.57
2019-01-14T04:43:04.206Z,1.90
2019-01-14T04:45:31.788Z,1.73
2019-01-14T04:47:59.542Z,1.50
2019-01-14T04:50:27.140Z,2.00
2019-01-14T04:52:54.711Z,2.20
2019-01-14T04:55:22.384Z,1.77
2019-01-14T04:57:49.802Z,1.50
2019-01-14T05:00:20.289Z,1.63
2019-01-14T05:02:47.870Z,1.60
2019-01-14T05:05:15.482Z,2.07
2019-01-14T05:07:43.008Z,2.10
2019-01-14T05:10:11.699Z,1.80
2019-01-14T05:12:39.239Z,2.10
2019-01-14T05:15:08.396Z,3.20
2019-01-14T05:17:36.131Z,2.13
2019-01-14T05:20:05.840Z,3.50
2019-01-14T05:22:33.587Z,2.43
2019-01-14T05:25:01.227Z,1.70
2019-01-14T05:27:28.811Z,2.27
2019-01-14T05:29:56.831Z,2.03
2019-01-14T05:32:24.481Z,1.63
2019-01-14T05:34:52.122Z,2.17
2019-01-14T05:37:19.771Z,2.10
2019-01-14T05:39:47.446Z,1.80
2019-01-14T05:42:14.969Z,2.47
2019-01-14T05:44:42.445Z,2.10
2019-01-14T05:47:10.136Z,2.50
2019-01-14T05:49:37.628Z,2.30
2019-01-14T05:52:05.184Z,2.10
2019-01-14T05:54:32.808Z,2.30
2019-01-14T05:57:00.735Z,2.30
2019-01-14T05:59:28.224Z,2.03
2019-01-14T06:01:55.749Z,2.40
2019-01-14T06:04:23.221Z,2.30
2019-01-14T06:06:50.776Z,2.33
2019-01-14T06:09:18.289Z,3.20
2019-01-14T06:11:45.875Z,3.33
2019-01-14T06:14:13.394Z,3.23
2019-01-14T06:16:41.012Z,2.50
2019-01-14T06:19:08.545Z,2.40
2019-01-14T06:21:36.034Z,2.20
2019-01-14T06:24:03.610Z,2.10
2019-01-14T06:26:31.104Z,2.87
2019-01-14T06:28:58.649Z,2.23
2019-01-14T06:31:26.232Z,2.57
2019-01-14T06:33:53.733Z,2.50
2019-01-14T06:36:21.275Z,2.93
2019-01-14T06:38:48.815Z,2.70
2019-01-14T06:41:16.294Z,2.80
2019-01-14T06:43:44.097Z,2.43
2019-01-14T06:46:11.657Z,2.00
2019-01-14T06:48:39.255Z,2.30
2019-01-14T06:51:06.829Z,1.83
2019-01-14T06:53:34.692Z,2.00
2019-01-14T06:56:02.222Z,2.03
2019-01-14T06:58:29.777Z,3.47
2019-01-14T07:00:57.460Z,1.70
2019-01-14T07:03:25.037Z,2.50
2019-01-14T07:05:52.561Z,2.27
2019-01-14T07:08:20.125Z,2.30
2019-01-14T07:10:47.929Z,1.83
2019-01-14T07:13:15.485Z,3.20
2019-01-14T07:15:42.991Z,2.23
2019-01-14T07:18:10.596Z,3.10
2019-01-14T07:20:40.626Z,2.67
2019-01-14T07:23:08.355Z,2.70
2019-01-14T07:25:36.075Z,2.50
2019-01-14T07:28:03.592Z,4.63
2019-01-14T07:30:31.169Z,2.40
2019-01-14T07:32:59.032Z,2.20
2019-01-14T07:35:26.609Z,5.33
2019-01-14T07:37:54.113Z,2.33
2019-01-14T07:40:21.757Z,2.03
2019-01-14T07:42:49.555Z,2.60
2019-01-14T07:45:17.936Z,1.97
2019-01-14T07:47:45.710Z,3.70
2019-01-14T07:50:14.733Z,1.70
2019-01-14T07:52:42.896Z,1.80
2019-01-14T07:55:11.139Z,1.70
2019-01-14T07:57:38.584Z,2.07
2019-01-14T08:00:19.476Z,4.67
2019-01-14T08:02:46.949Z,3.30
2019-01-14T08:05:14.525Z,2.50
2019-01-14T08:07:42.098Z,1.53
2019-01-14T08:10:09.671Z,3.80
2019-01-14T08:12:37.191Z,3.00
2019-01-14T08:15:08.925Z,2.47
2019-01-14T08:17:36.380Z,2.10
2019-01-14T08:20:05.108Z,2.50
2019-01-14T08:22:32.677Z,4.47
2019-01-14T08:25:00.533Z,3.03
2019-01-14T08:27:28.005Z,2.30
2019-01-14T08:29:55.533Z,1.60
2019-01-14T08:32:23.056Z,1.77
2019-01-14T08:34:50.565Z,2.10
2019-01-14T08:37:17.984Z,2.57
2019-01-14T08:39:45.855Z,2.03
2019-01-14T08:42:13.369Z,2.97
2019-01-14T08:44:42.943Z,3.10
2019-01-14T08:47:10.889Z,2.70
2019-01-14T08:49:38.436Z,2.60
2019-01-14T08:52:06.562Z,3.00
2019-01-14T08:54:34.248Z,2.80
2019-01-14T08:57:01.811Z,4.03
2019-01-14T08:59:29.329Z,20.70
2019-01-14T09:01:56.901Z,3.40
2019-01-14T09:04:24.854Z,2.73
2019-01-14T09:06:52.378Z,3.10
2019-01-14T09:09:19.929Z,2.60
2019-01-14T09:11:47.553Z,3.57
2019-01-14T09:14:15.231Z,3.07
2019-01-14T09:16:42.807Z,2.87
2019-01-14T09:19:10.310Z,2.80
2019-01-14T09:21:38.023Z,2.00
2019-01-14T09:24:05.542Z,3.37
2019-01-14T09:26:33.169Z,2.57
2019-01-14T09:29:00.897Z,2.60
2019-01-14T09:31:30.331Z,2.20
2019-01-14T09:33:58.829Z,2.53
2019-01-14T09:36:29.173Z,2.10
2019-01-14T09:38:57.208Z,2.13
2019-01-14T09:41:25.176Z,2.20
2019-01-14T09:43:53.174Z,2.17
2019-01-14T09:46:21.226Z,1.87
2019-01-14T09:48:53.249Z,3.77
2019-01-14T09:51:21.543Z,2.43
2019-01-14T09:53:49.830Z,2.00
2019-01-14T09:56:17.971Z,2.13
2019-01-14T09:59:57.847Z,2.90
2019-01-14T10:02:26.805Z,2.63
2019-01-14T10:04:55.306Z,2.37
2019-01-14T10:07:28.103Z,3.40
2019-01-14T10:09:57.944Z,2.23
2019-01-14T10:12:30.359Z,2.63
2019-01-14T10:14:59.112Z,2.90
2019-01-14T10:17:28.914Z,2.90
2019-01-14T10:19:58.847Z,2.50
2019-01-14T10:22:27.594Z,2.30
2019-01-14T10:24:56.374Z,3.20
2019-01-14T10:27:24.998Z,2.27
2019-01-14T10:29:53.861Z,2.93
2019-01-14T10:32:21.875Z,4.07
2019-01-14T10:34:49.773Z,2.60
2019-01-14T10:37:22.781Z,3.37
2019-01-14T10:39:58.078Z,2.20
2019-01-14T10:42:27.580Z,2.30
2019-01-14T10:44:55.817Z,3.07
2019-01-14T10:47:26.516Z,2.23
2019-01-14T10:49:55.691Z,3.10
2019-01-14T10:52:24.101Z,2.57
2019-01-14T10:54:55.263Z,3.80
2019-01-14T10:57:23.665Z,2.10
2019-01-14T10:59:53.685Z,2.30
2019-01-14T11:02:24.813Z,3.53
2019-01-14T11:04:55.796Z,3.03
2019-01-14T11:07:23.588Z,2.23
2019-01-14T11:09:51.164Z,3.07
2019-01-14T11:12:18.830Z,2.40
2019-01-14T11:14:46.566Z,2.37
2019-01-14T11:17:14.481Z,2.37
2019-01-14T11:19:42.139Z,1.80
2019-01-14T11:22:10.149Z,2.23
2019-01-14T11:24:50.667Z,1.80
2019-01-14T11:27:19.975Z,2.63
2019-01-14T11:29:56.039Z,1.90
2019-01-14T11:32:23.990Z,2.27
2019-01-14T11:34:51.868Z,2.00
2019-01-14T11:37:19.473Z,2.07
2019-01-14T11:39:47.064Z,2.97
2019-01-14T11:42:14.857Z,2.80
2019-01-14T11:44:42.354Z,3.17
2019-01-14T11:47:09.922Z,2.90
2019-01-14T11:49:37.536Z,2.47
2019-01-14T11:52:05.349Z,2.53
2019-01-14T11:54:44.282Z,2.33
2019-01-14T11:57:11.863Z,2.83
2019-01-14T11:59:40.165Z,1.93
2019-01-14T12:02:13.573Z,2.77
2019-01-14T12:04:41.064Z,3.10
2019-01-14T12:07:08.861Z,2.20
2019-01-14T12:09:36.924Z,3.20
2019-01-14T12:12:04.545Z,2.27
2019-01-14T12:14:32.385Z,3.00
2019-01-14T12:17:08.909Z,2.40
2019-01-14T12:19:36.564Z,2.30
2019-01-14T12:22:04.153Z,2.53
2019-01-14T12:24:31.688Z,2.70
2019-01-14T12:26:59.176Z,2.53
2019-01-14T12:29:27.522Z,2.17
2019-01-14T12:31:55.589Z,2.17
2019-01-14T12:34:23.466Z,2.53
2019-01-14T12:36:51.882Z,2.30
2019-01-14T12:39:23.592Z,3.60
2019-01-14T12:41:52.446Z,2.90
2019-01-14T12:44:21.088Z,1.90
2019-01-14T12:46:53.374Z,2.27
2019-01-14T12:49:25.220Z,2.23
2019-01-14T12:51:53.417Z,2.00
2019-01-14T12:54:21.209Z,2.70
2019-01-14T13:00:00.574Z,2.00
2019-01-14T13:02:32.313Z,1.93
2019-01-14T13:05:04.152Z,2.37
2019-01-14T13:07:39.728Z,1.90
2019-01-14T13:11:01.526Z,2.77
2019-01-14T13:13:30.600Z,2.53
2019-01-14T13:16:03.355Z,1.90
2019-01-14T13:18:36.365Z,1.40
2019-01-14T13:21:07.457Z,2.60
2019-01-14T13:23:38.371Z,2.30
2019-01-14T13:26:08.564Z,3.30
2019-01-14T13:28:37.360Z,1.80
2019-01-14T13:31:06.924Z,1.50
2019-01-14T13:33:37.384Z,1.90
2019-01-14T13:36:07.039Z,3.10
2019-01-14T13:38:34.533Z,1.07
2019-01-14T13:41:02.214Z,1.10
2019-01-14T13:43:30.222Z,0.87
2019-01-14T13:45:58.092Z,1.40
2019-01-14T13:48:26.373Z,1.20
2019-01-14T13:50:54.214Z,0.63
2019-01-14T13:53:21.988Z,0.83
2019-01-14T13:55:59.441Z,1.03
2019-01-14T13:58:23.301Z,1.37
2019-01-14T14:00:51.824Z,0.97
2019-01-14T14:03:21.966Z,1.70
2019-01-14T14:05:49.643Z,1.37
2019-01-14T14:08:17.070Z,1.10
2019-01-14T14:10:44.807Z,0.90
2019-01-14T14:13:12.255Z,1.30
2019-01-14T14:15:39.832Z,0.90
2019-01-14T14:18:07.328Z,1.30
2019-01-14T14:20:47.197Z,1.80
2019-01-14T14:23:25.649Z,1.20
2019-01-14T14:25:56.163Z,1.30
2019-01-14T14:28:29.945Z,1.77
2019-01-14T14:30:57.567Z,4.20
2019-01-14T14:33:42.358Z,1.93
2019-01-14T14:36:13.744Z,3.30
2019-01-14T14:38:49.274Z,3.63
2019-01-14T14:41:16.819Z,2.50
2019-01-14T14:43:44.436Z,1.43
2019-01-14T14:46:12.178Z,1.33
2019-01-14T14:48:49.625Z,1.97
2019-01-14T14:51:29.065Z,1.60
2019-01-14T14:54:00.130Z,1.60
2019-01-14T14:56:32.807Z,1.47
2019-01-14T14:59:06.000Z,1.20
2019-01-14T15:01:37.880Z,1.67
2019-01-14T15:04:38.387Z,2.17
2019-01-14T15:07:06.543Z,1.70
2019-01-14T15:09:37.632Z,1.40
2019-01-14T15:12:07.882Z,1.77
2019-01-14T15:14:36.765Z,1.63
2019-01-14T15:17:04.901Z,1.67
2019-01-14T15:19:32.873Z,2.17
2019-01-14T15:22:03.023Z,3.00
2019-01-14T15:24:34.503Z,2.13
2019-01-14T15:27:04.110Z,1.97
2019-01-14T15:29:32.094Z,1.70
2019-01-14T15:32:01.022Z,2.10
2019-01-14T15:34:28.636Z,2.70
2019-01-14T15:37:05.341Z,2.50
2019-01-14T15:39:32.950Z,2.50
2019-01-14T15:42:10.288Z,1.97
2019-01-14T15:44:42.618Z,2.10
2019-01-14T15:47:11.122Z,2.07
2019-01-14T15:49:42.296Z,3.63
2019-01-14T15:52:27.731Z,2.80
2019-01-14T15:55:25.779Z,1.90
2019-01-14T15:58:31.766Z,2.87
2019-01-14T16:01:14.043Z,1.77
2019-01-14T16:10:39.064Z,2.83
2019-01-14T16:13:30.998Z,3.33
2019-01-14T16:16:40.990Z,4.00
2019-01-14T16:19:17.334Z,2.80
2019-01-14T16:21:57.883Z,1.80
2019-01-14T16:24:29.794Z,8.10
2019-01-14T16:26:57.842Z,1.80
2019-01-14T16:29:34.995Z,2.20
2019-01-14T16:32:14.288Z,2.87
2019-01-14T16:34:42.175Z,3.77
2019-01-14T16:37:10.004Z,4.83
2019-01-14T16:39:37.564Z,4.13
2019-01-14T16:42:05.252Z,3.67
2019-01-14T16:44:32.756Z,4.47
2019-01-14T16:47:00.713Z,4.30
2019-01-14T16:49:28.657Z,3.63
2019-01-14T16:52:20.949Z,3.60
2019-01-14T16:54:52.679Z,3.70
2019-01-14T16:57:20.301Z,3.43
2019-01-14T16:59:50.924Z,4.10
2019-01-14T17:02:20.242Z,4.50
2019-01-14T17:04:52.414Z,3.80
2019-01-14T17:07:25.275Z,6.00
2019-01-14T17:09:58.969Z,4.90
2019-01-14T17:15:35.330Z,5.07
2019-01-14T17:18:13.535Z,4.40
2019-01-14T17:20:50.542Z,4.93
2019-01-14T17:23:45.541Z,4.90
2019-01-14T17:26:18.585Z,4.60
2019-01-14T17:29:03.390Z,5.13
2019-01-14T17:31:30.955Z,4.57
2019-01-14T17:34:00.672Z,5.10
2019-01-14T17:36:38.965Z,5.00
2019-01-14T17:39:11.730Z,7.33
2019-01-14T17:41:49.092Z,7.03
2019-01-14T17:44:50.904Z,6.53
2019-01-14T17:47:43.793Z,6.37
2019-01-14T17:50:17.654Z,7.97
2019-01-14T17:52:45.773Z,7.97
2019-01-14T17:55:37.166Z,6.07
2019-01-14T17:58:04.951Z,5.80
2019-01-14T18:00:33.305Z,5.90
2019-01-14T18:03:04.938Z,5.80
2019-01-14T18:06:07.246Z,6.90
2019-01-14T18:08:37.795Z,5.10
2019-01-14T18:21:05.450Z,3.37
2019-01-14T18:23:29.797Z,3.80
2019-01-14T18:26:08.797Z,3.83
2019-01-14T18:29:17.760Z,4.07
2019-01-14T18:31:47.792Z,3.50
2019-01-14T18:37:55.835Z,2.10
2019-01-14T18:40:24.947Z,2.27
2019-01-14T18:42:57.050Z,1.90
2019-01-14T18:46:23.841Z,3.00
2019-01-14T18:49:20.492Z,2.00
2019-01-14T18:52:07.978Z,2.13
2019-01-14T18:54:54.225Z,2.20
2019-01-14T19:00:52.999Z,2.53
2019-01-14T19:10:03.513Z,2.30
2019-01-14T19:12:43.094Z,2.80
2019-01-14T19:15:27.107Z,2.70
2019-01-14T19:18:09.647Z,2.03
2019-01-14T19:24:31.372Z,2.53
2019-01-14T19:31:06.956Z,1.90
2019-01-14T19:37:04.450Z,3.07
2019-01-14T19:39:40.752Z,2.90
2019-01-14T19:42:26.907Z,2.80
2019-01-14T19:45:03.563Z,1.97
2019-01-14T19:47:36.665Z,2.07
2019-01-14T19:50:16.443Z,1.63
2019-01-14T19:52:45.418Z,2.33
2019-01-14T19:55:13.776Z,2.97
2019-01-14T19:57:45.666Z,1.40
2019-01-14T20:00:31.455Z,1.57
2019-01-14T20:03:22.200Z,2.60
2019-01-14T20:05:51.526Z,8.00
2019-01-14T20:08:29.057Z,3.80
2019-01-14T20:11:09.089Z,12.10
2019-01-14T20:13:40.857Z,9.77
2019-01-14T20:16:09.830Z,16.57
2019-01-14T20:18:41.431Z,6.40
2019-01-14T20:21:10.280Z,4.60
2019-01-14T20:23:37.740Z,3.07
2019-01-14T20:26:05.241Z,2.60
2019-01-14T20:28:32.728Z,2.90
2019-01-14T20:31:01.267Z,2.40
2019-01-14T20:33:29.125Z,2.40
2019-01-14T20:35:57.867Z,2.77
2019-01-14T20:38:50.125Z,3.00
2019-01-14T20:41:21.557Z,3.10
2019-01-14T20:43:49.804Z,3.10
2019-01-14T20:46:29.335Z,4.33
2019-01-14T20:49:05.894Z,6.00
2019-01-14T20:51:52.199Z,4.50
2019-01-14T20:54:14.109Z,4.70
2019-01-14T20:56:41.685Z,5.10
2019-01-14T20:59:09.203Z,4.70
2019-01-14T21:01:36.701Z,3.53
2019-01-14T21:04:10.510Z,3.30
2019-01-14T21:06:38.012Z,2.17
2019-01-14T21:09:07.152Z,2.60
2019-01-14T21:11:34.857Z,2.20
2019-01-14T21:14:02.880Z,2.30
2019-01-14T21:16:32.970Z,2.07
2019-01-14T21:19:00.432Z,1.90
2019-01-14T21:21:28.091Z,2.20
2019-01-14T21:23:58.265Z,2.37
2019-01-14T21:26:26.973Z,2.27
2019-01-14T21:28:57.153Z,2.50
2019-01-14T21:31:25.056Z,2.03
2019-01-14T21:33:52.665Z,2.10
2019-01-14T21:36:20.254Z,4.10
2019-01-14T21:38:47.813Z,3.40
2019-01-14T21:41:15.378Z,2.60
2019-01-14T21:43:53.265Z,2.73
2019-01-14T21:46:20.893Z,2.50
2019-01-14T21:48:55.392Z,2.23
2019-01-14T21:51:22.848Z,2.17
2019-01-14T21:53:50.324Z,2.53
2019-01-14T21:56:17.833Z,2.80
2019-01-14T21:58:45.301Z,3.00
2019-01-14T22:01:12.858Z,4.03
2019-01-14T22:03:40.613Z,2.97
2019-01-14T22:06:08.253Z,2.80
2019-01-14T22:08:35.712Z,3.00
2019-01-14T22:11:03.188Z,3.20
2019-01-14T22:13:30.667Z,3.00
2019-01-14T22:15:58.681Z,2.90
2019-01-14T22:18:26.475Z,3.50
2019-01-14T22:20:54.401Z,2.77
2019-01-14T22:23:22.071Z,2.70
2019-01-14T22:25:49.588Z,3.60
2019-01-14T22:28:17.329Z,2.83
2019-01-14T22:30:45.202Z,3.33
2019-01-14T22:33:12.701Z,3.20
2019-01-14T22:35:40.162Z,3.53
2019-01-14T22:38:08.010Z,3.27
2019-01-14T22:40:35.617Z,3.17
2019-01-14T22:43:04.319Z,3.40
2019-01-14T22:45:31.839Z,3.80
2019-01-14T22:47:59.315Z,4.17
2019-01-14T22:50:26.777Z,3.77
2019-01-14T22:52:54.633Z,3.57
2019-01-14T22:55:22.616Z,4.20
2019-01-14T22:57:50.179Z,3.93
2019-01-14T23:00:27.181Z,3.90
2019-01-14T23:02:54.710Z,4.23
2019-01-14T23:05:22.227Z,4.90
2019-01-14T23:07:49.709Z,6.00
2019-01-14T23:10:17.156Z,5.43
2019-01-14T23:12:44.629Z,5.10
2019-01-14T23:15:12.088Z,4.80
2019-01-14T23:17:39.565Z,5.13
2019-01-14T23:20:07.149Z,6.07
2019-01-14T23:22:35.134Z,4.37
2019-01-14T23:25:03.225Z,5.30
2019-01-14T23:27:31.144Z,4.80
2019-01-14T23:29:58.587Z,4.03
2019-01-14T23:32:26.096Z,4.10
2019-01-14T23:34:53.532Z,3.87
2019-01-14T23:37:21.065Z,4.17
2019-01-14T23:39:48.493Z,5.00
2019-01-14T23:42:20.200Z,4.17
2019-01-14T23:44:47.946Z,4.30
2019-01-14T23:47:15.732Z,4.90
2019-01-14T23:49:43.271Z,4.23
2019-01-14T23:52:10.748Z,4.57
2019-01-14T23:54:38.226Z,5.10
2019-01-14T23:57:05.676Z,5.40
2019-01-14T23:59:33.357Z,3.70
